Time;durP1;ratioP1;P1;durP2;ratioP2;P2;SDS_P1;SDS_P2;PMS_P1;PMS_P2;Temp;Humidity;BMP_temperature;BMP_pressure;BME280_temperature;BME280_humidity;BME280_pressure;Samples;Min_cycle;Max_cycle;Signal;HPM_P1;HPM_P2
2022/03/14 00:01:18;;;;;;;18.37;15.30;;;10.00;52.50;;;;;;6190893;23;20402;-91
2022/03/14 00:03:55;;;;;;;25.83;16.40;;;10.00;52.90;;;;;;6196718;23;20796;-91
2022/03/14 00:06:22;;;;;;;19.13;15.70;;;9.90;54.10;;;;;;6206895;23;20422;-90
2022/03/14 00:08:55;;;;;;;23.20;16.60;;;9.90;54.20;;;;;;6176428;23;20473;-90
2022/03/14 00:11:23;;;;;;;22.60;14.60;;;9.90;54.20;;;;;;6161352;23;20773;-89
2022/03/14 00:13:56;;;;;;;21.10;14.93;;;9.90;54.20;;;;;;6160537;23;20489;-92
2022/03/14 00:16:25;;;;;;;26.53;15.80;;;9.90;54.00;;;;;;6161488;23;20411;-90
2022/03/14 00:18:53;;;;;;;22.70;15.53;;;9.80;53.60;;;;;;6161625;23;20442;-91
2022/03/14 00:21:21;;;;;;;22.80;15.70;;;9.90;53.70;;;;;;6161744;23;20419;-91
2022/03/14 00:23:48;;;;;;;25.83;14.87;;;9.90;53.40;;;;;;6161402;23;20414;-91
2022/03/14 00:26:16;;;;;;;19.97;15.97;;;9.90;53.20;;;;;;6171718;23;20397;-92
2022/03/14 00:28:43;;;;;;;19.50;15.23;;;9.90;52.90;;;;;;6179203;23;20870;-91
2022/03/14 00:31:10;;;;;;;19.93;15.63;;;9.90;53.20;;;;;;6177955;23;20486;-91
2022/03/14 00:33:39;;;;;;;20.20;14.67;;;9.80;53.30;;;;;;6161359;23;20410;-91
2022/03/14 00:36:08;;;;;;;23.30;16.10;;;9.80;53.50;;;;;;6158569;23;20506;-89
2022/03/14 00:38:36;;;;;;;22.70;16.03;;;9.90;53.60;;;;;;6166861;23;20443;-90
2022/03/14 00:41:04;;;;;;;19.67;15.33;;;9.90;53.90;;;;;;6183919;23;20403;-90
2022/03/14 00:43:34;;;;;;;19.30;16.80;;;10.00;53.20;;;;;;6183796;23;20410;-89
2022/03/14 00:46:01;;;;;;;19.27;17.10;;;10.10;53.50;;;;;;6182094;23;20399;-90
2022/03/14 00:48:30;;;;;;;27.23;18.63;;;10.10;53.50;;;;;;6182947;23;20394;-90
2022/03/14 00:50:57;;;;;;;19.80;16.10;;;10.10;53.40;;;;;;6171642;23;20418;-89
2022/03/14 00:53:24;;;;;;;22.60;18.80;;;10.10;53.20;;;;;;6181002;23;20407;-90
2022/03/14 00:55:51;;;;;;;22.00;16.47;;;10.10;53.30;;;;;;6161507;23;20398;-90
2022/03/14 00:58:18;;;;;;;26.27;17.43;;;10.00;53.30;;;;;;6160889;23;20485;-91
2022/03/14 01:00:47;;;;;;;20.73;16.50;;;9.80;54.80;;;;;;6163957;23;20446;-90
2022/03/14 01:03:14;;;;;;;21.07;18.80;;;9.80;55.60;;;;;;6177733;23;20398;-89
2022/03/14 01:05:40;;;;;;;18.83;16.10;;;9.90;56.00;;;;;;6182033;23;20418;-90
2022/03/14 01:08:09;;;;;;;21.33;16.90;;;9.90;55.20;;;;;;6176706;23;20423;-90
2022/03/14 01:10:36;;;;;;;22.63;18.60;;;9.90;55.10;;;;;;6164611;23;20407;-90
2022/03/14 01:13:04;;;;;;;21.53;16.40;;;9.90;55.10;;;;;;6175709;23;20426;-90
2022/03/14 01:15:32;;;;;;;19.47;15.70;;;10.00;54.10;;;;;;6183527;23;20478;-90
2022/03/14 01:18:02;;;;;;;21.27;16.47;;;10.00;53.80;;;;;;6172239;23;20959;-90
2022/03/14 01:20:29;;;;;;;19.50;16.07;;;10.10;54.90;;;;;;6164404;23;20395;-90
2022/03/14 01:22:55;;;;;;;18.20;16.33;;;10.10;55.70;;;;;;6159251;23;20398;-91
2022/03/14 01:25:23;;;;;;;21.87;16.70;;;10.20;56.20;;;;;;6158208;23;20490;-90
2022/03/14 01:27:51;;;;;;;20.67;15.77;;;10.30;57.70;;;;;;6179530;23;20425;-90
2022/03/14 01:30:18;;;;;;;20.13;14.57;;;10.30;57.80;;;;;;6161184;23;20406;-91
2022/03/14 01:32:45;;;;;;;20.20;15.67;;;10.20;57.90;;;;;;6157625;23;20419;-91
2022/03/14 01:35:13;;;;;;;21.50;16.00;;;10.10;57.80;;;;;;6157438;23;20916;-90
2022/03/14 01:37:40;;;;;;;21.13;16.33;;;10.10;57.20;;;;;;6172570;23;20425;-91
2022/03/14 01:40:09;;;;;;;18.20;15.27;;;10.10;58.90;;;;;;6169171;23;20410;-90
2022/03/14 01:42:35;;;;;;;21.67;17.30;;;10.10;58.20;;;;;;6179062;23;20395;-90
2022/03/14 01:45:03;;;;;;;24.67;17.27;;;10.10;57.80;;;;;;6171308;23;20493;-90
2022/03/14 01:47:30;;;;;;;20.23;14.70;;;10.10;57.80;;;;;;6159679;23;20442;-90
2022/03/14 01:49:57;;;;;;;27.90;18.13;;;10.10;58.50;;;;;;6159533;23;20410;-91
2022/03/14 01:52:26;;;;;;;19.40;16.50;;;10.10;59.00;;;;;;6159485;23;20426;-90
2022/03/14 01:54:53;;;;;;;18.37;16.23;;;10.20;62.80;;;;;;6158744;23;20414;-90
2022/03/14 01:57:20;;;;;;;23.47;21.07;;;10.20;66.40;;;;;;6159123;23;20441;-90
2022/03/14 01:59:47;;;;;;;20.10;17.97;;;10.30;67.60;;;;;;6171484;23;20450;-90
2022/03/14 02:02:14;;;;;;;20.70;18.50;;;10.40;71.50;;;;;;6170463;23;20474;-91
2022/03/14 02:04:41;;;;;;;20.67;18.53;;;10.50;73.50;;;;;;6164224;23;20763;-91
2022/03/14 02:07:08;;;;;;;20.47;18.17;;;10.60;76.60;;;;;;6160165;23;20509;-91
2022/03/14 02:09:36;;;;;;;19.80;17.80;;;10.70;78.00;;;;;;6184536;23;20394;-90
2022/03/14 02:12:07;;;;;;;21.13;17.50;;;10.70;79.10;;;;;;6172989;23;20401;-90
2022/03/14 02:14:39;;;;;;;18.77;16.17;;;10.80;81.50;;;;;;6171650;23;20462;-91
2022/03/14 02:17:07;;;;;;;21.20;17.60;;;11.00;83.10;;;;;;6160154;23;20498;-91
2022/03/14 02:19:34;;;;;;;18.37;16.50;;;11.10;83.80;;;;;;6159785;23;20440;-91
2022/03/14 02:22:02;;;;;;;20.93;18.50;;;11.10;85.10;;;;;;6160728;23;20402;-92
2022/03/14 02:24:30;;;;;;;23.87;20.30;;;11.20;85.90;;;;;;6165261;23;20406;-90
2022/03/14 02:26:57;;;;;;;22.60;18.30;;;11.20;86.50;;;;;;6184393;23;20447;-90
2022/03/14 02:29:24;;;;;;;21.53;18.93;;;11.10;87.00;;;;;;6172063;23;20422;-91
2022/03/14 02:31:55;;;;;;;20.10;18.10;;;11.10;87.90;;;;;;6162235;23;20395;-90
2022/03/14 02:34:22;;;;;;;19.67;17.60;;;11.10;88.10;;;;;;6161393;23;20368;-91
2022/03/14 02:36:49;;;;;;;20.70;18.47;;;11.00;89.40;;;;;;6163841;23;20830;-91
2022/03/14 02:39:17;;;;;;;20.17;18.07;;;10.90;90.00;;;;;;6160245;23;20437;-91
2022/03/14 02:41:44;;;;;;;22.13;19.57;;;10.80;90.40;;;;;;6160121;23;20414;-91
2022/03/14 02:44:11;;;;;;;20.70;18.07;;;10.80;91.00;;;;;;6160378;23;20426;-91
2022/03/14 02:46:38;;;;;;;20.07;17.93;;;10.90;91.50;;;;;;6162050;23;20415;-90
2022/03/14 02:49:06;;;;;;;21.20;18.93;;;10.90;91.20;;;;;;6177898;23;20421;-91
2022/03/14 02:51:34;;;;;;;19.83;17.77;;;11.00;91.30;;;;;;6160821;23;20398;-91
2022/03/14 02:54:01;;;;;;;23.50;20.00;;;11.00;91.70;;;;;;6161631;23;20425;-91
2022/03/14 02:56:30;;;;;;;21.57;19.27;;;11.00;91.70;;;;;;6183797;23;20431;-89
2022/03/14 02:58:56;;;;;;;21.90;19.57;;;10.90;92.20;;;;;;6184616;23;20424;-92
2022/03/14 03:01:23;;;;;;;24.80;20.33;;;10.80;92.80;;;;;;6182141;23;20399;-91
2022/03/14 03:03:50;;;;;;;22.30;19.97;;;10.80;93.90;;;;;;6181410;23;20438;-91
2022/03/14 03:06:22;;;;;;;23.73;21.20;;;10.90;94.60;;;;;;6181731;23;20442;-91
2022/03/14 03:08:49;;;;;;;25.00;21.40;;;10.90;94.30;;;;;;6181191;23;20400;-91
2022/03/14 03:11:16;;;;;;;22.87;19.93;;;10.80;94.00;;;;;;6165092;23;20423;-91
2022/03/14 03:13:45;;;;;;;26.70;21.23;;;10.70;95.10;;;;;;6170574;23;20394;-92
2022/03/14 03:16:13;;;;;;;27.60;21.23;;;10.50;96.50;;;;;;6181410;23;20399;-91
2022/03/14 03:18:40;;;;;;;26.53;22.90;;;10.30;97.60;;;;;;6168786;23;20474;-91
2022/03/14 03:22:00;;;;;;;27.83;22.90;;;10.20;98.80;;;;;;6169206;23;20419;-90
2022/03/14 03:24:27;;;;;;;25.63;22.60;;;10.10;99.70;;;;;;6160003;23;20407;-90
2022/03/14 03:26:54;;;;;;;30.20;25.97;;;10.10;99.90;;;;;;6159655;23;20493;-92
2022/03/14 03:29:24;;;;;;;28.30;23.60;;;10.00;99.90;;;;;;6160156;23;20414;-91
2022/03/14 03:31:51;;;;;;;33.33;25.20;;;10.00;99.90;;;;;;6159315;23;20421;-91
2022/03/14 03:34:24;;;;;;;30.60;24.40;;;10.00;99.90;;;;;;6160379;23;20414;-91
2022/03/14 03:36:51;;;;;;;31.30;25.90;;;9.90;99.90;;;;;;6160325;23;20881;-90
2022/03/14 03:39:20;;;;;;;27.90;24.07;;;9.80;99.90;;;;;;6158531;23;20952;-91
2022/03/14 03:41:49;;;;;;;27.03;23.00;;;9.80;99.90;;;;;;6159146;23;20419;-90
2022/03/14 03:44:16;;;;;;;27.93;23.70;;;9.80;99.90;;;;;;6159445;23;20402;-91
2022/03/14 03:46:48;;;;;;;31.17;24.90;;;9.90;99.90;;;;;;6159703;23;20439;-91
2022/03/14 03:49:17;;;;;;;25.57;22.87;;;9.90;99.90;;;;;;6174982;23;20401;-88
2022/03/14 03:51:44;;;;;;;23.80;21.30;;;10.00;99.90;;;;;;6180925;23;20462;-88
2022/03/14 03:54:10;;;;;;;24.30;19.30;;;10.00;99.90;;;;;;6179760;23;20419;-90
2022/03/14 03:56:41;;;;;;;15.67;12.27;;;9.90;99.90;;;;;;6168424;23;20446;-89
2022/03/14 03:59:08;;;;;;;12.17;10.80;;;10.00;99.90;;;;;;6164174;23;20431;-89
2022/03/14 04:01:36;;;;;;;10.53;8.97;;;10.00;99.90;;;;;;6175617;23;20433;-89
2022/03/14 04:04:11;;;;;;;11.40;9.20;;;10.00;99.90;;;;;;6165268;23;20414;-90
2022/03/14 04:06:42;;;;;;;9.00;8.10;;;9.80;99.90;;;;;;6181174;23;20433;-89
2022/03/14 04:09:30;;;;;;;8.33;7.47;;;9.70;99.90;;;;;;6173194;23;20473;-89
2022/03/14 04:11:58;;;;;;;8.10;7.30;;;9.70;99.90;;;;;;6183635;23;20399;-90
2022/03/14 04:14:27;;;;;;;6.57;5.30;;;9.70;99.90;;;;;;6176411;23;21019;-89
2022/03/14 04:16:54;;;;;;;6.63;5.03;;;9.80;99.90;;;;;;6159400;23;20925;-90
2022/03/14 04:19:31;;;;;;;4.70;4.20;;;9.70;99.90;;;;;;6158647;23;20445;-89
2022/03/14 04:21:58;;;;;;;6.37;4.73;;;9.80;99.90;;;;;;6159281;23;20391;-90
2022/03/14 04:24:30;;;;;;;5.63;4.63;;;9.80;99.90;;;;;;6158761;23;20414;-91
2022/03/14 04:26:59;;;;;;;5.57;4.50;;;9.70;99.90;;;;;;6158645;23;20493;-90
2022/03/14 04:29:30;;;;;;;4.60;3.90;;;9.70;99.90;;;;;;6157855;23;20816;-90
2022/03/14 04:31:58;;;;;;;5.00;4.00;;;9.70;99.90;;;;;;6164917;23;20474;-90
2022/03/14 04:34:29;;;;;;;5.07;4.23;;;9.70;99.90;;;;;;6157466;23;20450;-89
2022/03/14 04:36:57;;;;;;;5.00;4.40;;;9.70;99.90;;;;;;6158443;23;20521;-89
2022/03/14 04:39:24;;;;;;;4.83;3.97;;;9.70;99.90;;;;;;6163481;23;20438;-90
2022/03/14 04:41:52;;;;;;;5.60;4.40;;;9.80;99.90;;;;;;6160687;23;20463;-90
2022/03/14 04:44:19;;;;;;;5.73;4.73;;;9.70;99.90;;;;;;6158352;23;20415;-90
2022/03/14 04:46:45;;;;;;;6.90;5.57;;;9.70;99.90;;;;;;6167314;23;20422;-91
2022/03/14 04:49:12;;;;;;;6.87;6.20;;;9.70;99.90;;;;;;6182765;23;20430;-89
2022/03/14 04:51:42;;;;;;;7.07;5.70;;;9.70;99.90;;;;;;6174796;23;20866;-91
2022/03/14 04:54:09;;;;;;;6.80;5.77;;;9.60;99.90;;;;;;6158495;23;20418;-90
2022/03/14 04:56:36;;;;;;;9.63;6.60;;;9.60;99.90;;;;;;6172650;23;20454;-89
2022/03/14 04:59:04;;;;;;;9.90;8.70;;;9.60;99.90;;;;;;6172840;23;20487;-90
2022/03/14 05:01:31;;;;;;;10.83;8.20;;;9.50;99.90;;;;;;6164553;23;20425;-91
2022/03/14 05:03:58;;;;;;;11.03;8.10;;;9.50;99.90;;;;;;6157920;23;20423;-90
2022/03/14 05:06:25;;;;;;;11.10;7.67;;;9.50;99.90;;;;;;6168528;23;20826;-90
2022/03/14 05:08:56;;;;;;;9.40;7.30;;;9.60;99.90;;;;;;6171118;23;20407;-91
2022/03/14 05:11:22;;;;;;;8.00;7.20;;;9.60;99.90;;;;;;6179130;23;20478;-89
2022/03/14 05:13:49;;;;;;;9.50;8.07;;;9.60;99.90;;;;;;6170137;23;20423;-89
2022/03/14 05:16:16;;;;;;;9.20;8.00;;;9.60;99.90;;;;;;6173907;23;20449;-89
2022/03/14 05:18:43;;;;;;;12.43;8.27;;;9.60;99.90;;;;;;6160864;23;20395;-89
2022/03/14 05:21:10;;;;;;;7.00;6.27;;;9.70;99.90;;;;;;6161385;23;20449;-89
2022/03/14 05:23:37;;;;;;;7.90;6.37;;;9.60;99.90;;;;;;6162301;23;20474;-90
2022/03/14 05:26:06;;;;;;;6.63;5.77;;;9.60;99.90;;;;;;6168190;23;20485;-89
2022/03/14 05:28:33;;;;;;;8.20;6.37;;;9.60;99.90;;;;;;6160304;23;20395;-89
2022/03/14 05:31:00;;;;;;;7.70;6.60;;;9.50;99.90;;;;;;6170482;23;20398;-89
2022/03/14 05:33:26;;;;;;;10.87;7.10;;;9.50;99.90;;;;;;6182918;23;20391;-89
2022/03/14 05:35:54;;;;;;;7.60;6.90;;;9.50;99.90;;;;;;6173961;23;20407;-90
2022/03/14 05:38:22;;;;;;;7.77;6.97;;;9.50;99.90;;;;;;6166720;23;20419;-89
2022/03/14 05:40:50;;;;;;;8.20;7.10;;;9.50;99.90;;;;;;6159742;23;20449;-89
2022/03/14 05:43:21;;;;;;;9.60;8.70;;;9.50;99.90;;;;;;6160611;23;20423;-90
2022/03/14 05:45:47;;;;;;;10.30;8.43;;;9.40;99.90;;;;;;6174831;23;20376;-89
2022/03/14 05:48:14;;;;;;;7.43;6.40;;;9.30;99.90;;;;;;6185117;23;20441;-89
2022/03/14 05:50:41;;;;;;;6.53;4.67;;;9.40;99.90;;;;;;6179974;23;20421;-89
2022/03/14 05:53:08;;;;;;;5.60;5.00;;;9.40;99.90;;;;;;6164829;23;20482;-89
2022/03/14 05:55:35;;;;;;;4.17;3.77;;;9.40;99.90;;;;;;6176313;23;20414;-90
2022/03/14 05:58:10;;;;;;;4.27;3.37;;;9.30;99.90;;;;;;6181974;23;20454;-90
2022/03/14 06:01:22;;;;;;;1.90;1.70;;;9.30;99.90;;;;;;6165314;23;20440;-90
2022/03/14 06:07:52;;;;;;;2.53;1.90;;;9.40;99.90;;;;;;6159938;23;20417;-90
2022/03/14 06:11:15;;;;;;;3.80;1.50;;;9.50;99.90;;;;;;6172670;23;20425;-89
2022/03/14 06:17:22;;;;;;;1.60;1.50;;;9.50;99.90;;;;;;6181717;23;20472;-90
2022/03/14 06:20:30;;;;;;;3.53;1.60;;;9.50;99.90;;;;;;6183600;23;20427;-89
2022/03/14 06:23:46;;;;;;;2.43;1.80;;;9.50;99.90;;;;;;6180517;23;20417;-90
2022/03/14 06:52:52;;;;;;;5.80;1.80;;;9.40;99.90;;;;;;6121315;23;21577;-88
2022/03/14 07:08:38;;;;;;;4.97;1.97;;;9.40;99.90;;;;;;6128529;23;20441;-89
2022/03/14 07:11:42;;;;;;;2.63;1.33;;;9.40;99.90;;;;;;6171119;23;20410;-90
2022/03/14 07:14:13;;;;;;;2.47;1.30;;;9.50;99.90;;;;;;6150461;23;20411;-90
2022/03/14 07:16:44;;;;;;;2.27;1.10;;;9.50;99.90;;;;;;6177427;23;20518;-91
2022/03/14 07:19:26;;;;;;;7.27;1.47;;;9.50;99.90;;;;;;6181725;23;20388;-90
2022/03/14 07:22:03;;;;;;;1.63;1.30;;;9.50;99.90;;;;;;6182154;23;20418;-91
2022/03/14 07:24:39;;;;;;;1.50;1.10;;;9.50;99.90;;;;;;6181620;23;20490;-89
2022/03/14 07:45:28;;;;;;;3.17;1.43;;;10.00;99.90;;;;;;6202766;23;20438;-89
2022/03/14 07:55:55;;;;;;;;;;;;;;;;;;;;;
2022/03/14 07:58:33;;;;;;;5.50;1.20;;;12.40;95.40;;;;;;6195978;23;20441;-90
2022/03/14 08:01:22;;;;;;;5.77;1.63;;;12.70;92.70;;;;;;6210963;23;20440;-88
2022/03/14 08:03:55;;;;;;;4.00;1.60;;;12.30;92.90;;;;;;6211419;23;20394;-89
2022/03/14 08:06:24;;;;;;;4.80;1.53;;;12.10;92.30;;;;;;6211542;23;20426;-84
2022/03/14 08:08:53;;;;;;;3.93;2.00;;;12.90;92.50;;;;;;6206390;23;20470;-79
2022/03/14 08:11:22;;;;;;;4.23;1.70;;;13.90;89.70;;;;;;6199066;23;20402;-77
2022/03/14 08:13:50;;;;;;;4.60;1.53;;;13.30;85.20;;;;;;6201830;23;20394;-86
2022/03/14 08:16:24;;;;;;;4.80;2.33;;;12.90;87.70;;;;;;6203246;23;20434;-91
2022/03/14 08:18:59;;;;;;;4.97;1.50;;;12.60;90.00;;;;;;6194511;23;20476;-91
2022/03/14 08:21:31;;;;;;;3.20;1.10;;;12.20;90.80;;;;;;6194300;23;20440;-90
2022/03/14 08:24:04;;;;;;;2.30;1.70;;;12.10;90.90;;;;;;6202136;23;20448;-93
2022/03/14 08:26:36;;;;;;;3.07;1.53;;;11.80;90.40;;;;;;6191106;23;20443;-91
2022/03/14 08:29:05;;;;;;;2.27;1.10;;;11.90;90.70;;;;;;6193757;23;20406;-91
2022/03/14 08:31:39;;;;;;;2.33;1.50;;;11.80;90.60;;;;;;6197590;23;20829;-90
2022/03/14 08:34:11;;;;;;;4.47;1.77;;;11.60;90.20;;;;;;6192574;23;20406;-92
2022/03/14 08:36:40;;;;;;;4.10;1.77;;;12.00;90.10;;;;;;6199799;23;20423;-90
2022/03/14 08:39:35;;;;;;;3.67;1.07;;;13.10;90.50;;;;;;6204875;23;20440;-90
2022/03/14 08:42:14;;;;;;;7.57;1.80;;;14.40;83.60;;;;;;6199059;23;20413;-90
2022/03/14 08:44:53;;;;;;;3.43;1.60;;;15.90;75.90;;;;;;6212384;23;20442;-91
2022/03/14 08:47:39;;;;;;;3.30;1.43;;;16.10;70.60;;;;;;6210547;23;20430;-89
2022/03/14 08:50:12;;;;;;;3.33;1.40;;;16.10;69.80;;;;;;6193297;23;20703;-90
2022/03/14 08:52:53;;;;;;;5.40;1.63;;;15.10;68.00;;;;;;6189289;23;20413;-89
2022/03/14 08:55:29;;;;;;;2.90;0.93;;;15.00;70.20;;;;;;6189563;23;20502;-91
2022/03/14 08:58:04;;;;;;;3.83;1.53;;;14.60;71.30;;;;;;6196856;23;20431;-89
2022/03/14 09:00:35;;;;;;;2.90;1.27;;;14.60;74.50;;;;;;6202996;23;20808;-89
2022/03/14 09:03:16;;;;;;;6.80;2.00;;;15.00;70.30;;;;;;6209740;23;20404;-89
2022/03/14 09:05:44;;;;;;;12.50;1.80;;;14.80;69.30;;;;;;6197439;23;20418;-90
2022/03/14 09:08:18;;;;;;;2.23;1.50;;;14.90;70.00;;;;;;6193649;23;20454;-91
2022/03/14 09:10:46;;;;;;;4.63;1.53;;;15.10;68.40;;;;;;6199740;23;20406;-90
2022/03/14 09:13:13;;;;;;;4.30;1.70;;;15.10;65.70;;;;;;6193188;23;20393;-88
2022/03/14 09:15:40;;;;;;;2.67;1.73;;;14.50;65.30;;;;;;6200743;23;20401;-88
2022/03/14 09:18:09;;;;;;;4.27;1.57;;;14.10;68.40;;;;;;6194464;23;20457;-89
2022/03/14 09:20:37;;;;;;;3.40;1.57;;;13.70;69.20;;;;;;6197354;23;20512;-88
2022/03/14 09:23:04;;;;;;;4.70;1.43;;;13.10;70.40;;;;;;6194765;23;20468;-88
2022/03/14 09:25:32;;;;;;;4.60;1.67;;;13.30;70.00;;;;;;6192831;23;20390;-89
2022/03/14 09:27:59;;;;;;;5.07;1.57;;;14.80;67.40;;;;;;6188813;23;20778;-88
2022/03/14 09:30:26;;;;;;;3.53;1.43;;;16.40;64.20;;;;;;6190026;23;20422;-88
2022/03/14 09:32:53;;;;;;;5.40;1.33;;;16.00;61.20;;;;;;6201681;23;20402;-86
2022/03/14 09:35:24;;;;;;;2.30;1.23;;;16.40;59.40;;;;;;6212135;23;20417;-89
2022/03/14 09:37:54;;;;;;;4.83;1.83;;;16.80;59.10;;;;;;6212810;23;20429;-89
2022/03/14 09:40:23;;;;;;;4.10;1.60;;;17.70;58.90;;;;;;6211846;23;20501;-88
2022/03/14 09:42:52;;;;;;;3.90;1.30;;;18.70;57.00;;;;;;6210621;23;20477;-90
2022/03/14 09:45:20;;;;;;;3.10;1.20;;;18.10;55.40;;;;;;6207035;23;20402;-88
2022/03/14 09:47:49;;;;;;;3.27;1.97;;;17.80;56.50;;;;;;6196114;23;20493;-85
2022/03/14 09:50:27;;;;;;;3.30;1.90;;;18.80;55.00;;;;;;6184024;23;20759;-85
2022/03/14 09:52:55;;;;;;;4.47;1.40;;;18.70;53.60;;;;;;6183908;23;20390;-85
2022/03/14 09:55:22;;;;;;;2.53;1.17;;;18.30;54.30;;;;;;6193480;23;20444;-85
2022/03/14 09:57:50;;;;;;;1.97;1.10;;;18.30;54.20;;;;;;6188249;23;20429;-86
2022/03/14 10:00:18;;;;;;;3.90;1.87;;;19.60;53.20;;;;;;6184895;23;20438;-85
2022/03/14 10:02:45;;;;;;;3.37;2.03;;;21.40;51.20;;;;;;6190837;23;21064;-86
2022/03/14 10:05:14;;;;;;;3.83;2.03;;;23.20;48.40;;;;;;6184378;23;20408;-85
2022/03/14 10:07:44;;;;;;;4.20;1.40;;;24.20;45.00;;;;;;6186692;23;20851;-86
2022/03/14 10:10:12;;;;;;;5.57;1.63;;;22.50;43.50;;;;;;6202730;23;20512;-85
2022/03/14 10:12:41;;;;;;;4.27;1.30;;;21.20;45.40;;;;;;6204499;23;20392;-86
2022/03/14 10:15:09;;;;;;;2.83;1.30;;;20.70;45.40;;;;;;6188592;23;20411;-85
2022/03/14 10:17:36;;;;;;;3.93;1.60;;;21.20;45.70;;;;;;6187655;23;20784;-85
2022/03/14 10:20:06;;;;;;;2.40;1.33;;;20.80;45.50;;;;;;6187651;23;20402;-85
2022/03/14 10:22:35;;;;;;;3.47;1.40;;;19.60;46.20;;;;;;6184478;23;20409;-84
2022/03/14 10:25:05;;;;;;;3.17;1.90;;;19.80;48.00;;;;;;6187159;23;20925;-85
2022/03/14 10:27:35;;;;;;;3.77;1.60;;;21.60;47.20;;;;;;6187168;23;20428;-85
2022/03/14 10:30:02;;;;;;;2.70;1.23;;;23.20;44.00;;;;;;6186863;23;20415;-85
2022/03/14 10:32:36;;;;;;;4.70;1.43;;;24.00;42.80;;;;;;6187277;23;20397;-85
2022/03/14 10:35:05;;;;;;;6.40;2.07;;;25.20;40.50;;;;;;6195269;23;20396;-85
2022/03/14 10:37:33;;;;;;;4.60;1.43;;;25.70;39.80;;;;;;6188566;23;20431;-85
2022/03/14 10:40:01;;;;;;;2.20;1.37;;;25.70;38.00;;;;;;6186509;23;21150;-85
2022/03/14 10:42:38;;;;;;;2.20;1.70;;;24.00;38.00;;;;;;6187026;23;20448;-84
2022/03/14 10:45:10;;;;;;;5.57;1.73;;;22.10;40.00;;;;;;6201049;23;20390;-85
2022/03/14 10:47:37;;;;;;;2.70;1.50;;;21.10;41.30;;;;;;6186177;23;20991;-85
2022/03/14 10:50:04;;;;;;;5.43;1.80;;;19.80;43.70;;;;;;6196666;23;20398;-84
2022/03/14 10:52:30;;;;;;;4.13;1.70;;;17.70;45.60;;;;;;6212715;23;20410;-84
2022/03/14 10:54:57;;;;;;;2.50;1.50;;;17.50;47.90;;;;;;6208853;23;20390;-85
2022/03/14 10:57:26;;;;;;;7.17;3.03;;;17.40;48.10;;;;;;6188416;23;20422;-85
2022/03/14 10:59:55;;;;;;;4.20;2.10;;;17.60;48.90;;;;;;6187143;23;20424;-85
2022/03/14 11:02:25;;;;;;;4.50;1.20;;;18.60;47.70;;;;;;6189367;23;20441;-85
2022/03/14 11:04:54;;;;;;;2.90;1.50;;;19.30;46.40;;;;;;6186761;23;20391;-85
2022/03/14 11:07:24;;;;;;;8.90;1.50;;;22.30;44.70;;;;;;6186733;23;20437;-84
2022/03/14 11:09:52;;;;;;;2.50;1.30;;;24.60;40.00;;;;;;6186572;23;20918;-85
2022/03/14 11:12:20;;;;;;;2.83;1.13;;;24.30;38.10;;;;;;6186578;23;20893;-85
2022/03/14 11:14:57;;;;;;;3.77;1.70;;;22.90;39.50;;;;;;6191577;23;20741;-86
2022/03/14 11:17:26;;;;;;;3.60;1.83;;;23.00;40.10;;;;;;6186685;23;20425;-84
2022/03/14 11:19:54;;;;;;;3.93;1.73;;;23.20;39.10;;;;;;6186535;23;20496;-84
2022/03/14 11:22:22;;;;;;;4.00;2.07;;;23.70;38.70;;;;;;6186078;23;20443;-85
2022/03/14 11:24:50;;;;;;;2.47;1.77;;;25.50;37.70;;;;;;6186289;23;20420;-85
2022/03/14 11:27:28;;;;;;;3.10;1.90;;;26.00;36.40;;;;;;6187251;23;20429;-86
2022/03/14 11:30:02;;;;;;;3.60;1.57;;;26.50;35.40;;;;;;6187783;23;20401;-85
2022/03/14 11:32:29;;;;;;;2.90;1.43;;;27.60;33.80;;;;;;6186000;23;20401;-85
2022/03/14 11:34:56;;;;;;;2.53;1.33;;;27.50;32.90;;;;;;6186172;23;20792;-85
2022/03/14 11:37:24;;;;;;;4.50;1.57;;;27.10;33.80;;;;;;6186866;23;20429;-85
2022/03/14 11:39:52;;;;;;;4.60;1.30;;;28.40;34.10;;;;;;6186642;23;20906;-90
2022/03/14 11:42:18;;;;;;;4.13;1.57;;;26.90;31.90;;;;;;6186886;23;20445;-89
2022/03/14 11:44:47;;;;;;;2.70;1.47;;;26.70;32.40;;;;;;6187700;23;20424;-89
2022/03/14 11:47:19;;;;;;;3.27;1.27;;;23.70;35.20;;;;;;6211820;23;20429;-88
2022/03/14 11:49:46;;;;;;;2.13;1.43;;;24.30;36.50;;;;;;6212666;23;20384;-87
2022/03/14 11:52:18;;;;;;;2.53;1.10;;;24.60;35.50;;;;;;6209445;23;20403;-87
2022/03/14 11:54:49;;;;;;;3.20;1.10;;;24.30;35.40;;;;;;6191666;23;20387;-87
2022/03/14 11:57:35;;;;;;;3.33;1.47;;;23.00;36.50;;;;;;6198667;23;20423;-89
2022/03/14 12:00:32;;;;;;;4.13;1.50;;;21.80;37.50;;;;;;6210750;23;20357;-90
2022/03/14 12:03:05;;;;;;;2.87;2.40;;;22.10;38.90;;;;;;6212953;23;20389;-86
2022/03/14 12:05:50;;;;;;;2.80;1.50;;;22.20;38.00;;;;;;6212054;23;20437;-88
2022/03/14 12:09:00;;;;;;;2.23;1.73;;;20.60;39.80;;;;;;6194940;23;20429;-87
2022/03/14 12:11:37;;;;;;;3.67;1.90;;;18.80;42.00;;;;;;6187681;23;20386;-88
2022/03/14 12:14:05;;;;;;;4.50;1.47;;;21.50;42.70;;;;;;6199247;23;20385;-86
2022/03/14 12:16:39;;;;;;;4.87;1.20;;;24.10;38.70;;;;;;6202203;23;20397;-88
2022/03/14 12:19:38;;;;;;;3.50;1.90;;;24.50;36.50;;;;;;6187840;23;20437;-89
2022/03/14 12:22:06;;;;;;;1.47;1.17;;;26.10;35.80;;;;;;6186306;23;20429;-89
2022/03/14 12:24:48;;;;;;;3.30;1.13;;;27.50;32.90;;;;;;6186755;23;20404;-90
2022/03/14 12:27:16;;;;;;;4.20;1.33;;;28.40;31.60;;;;;;6186741;23;20437;-90
2022/03/14 12:29:44;;;;;;;2.63;1.13;;;29.60;30.20;;;;;;6186806;23;20901;-88
2022/03/14 12:32:32;;;;;;;4.23;1.40;;;28.00;30.90;;;;;;6187445;23;20769;-90
2022/03/14 12:35:06;;;;;;;8.43;2.20;;;27.60;32.20;;;;;;6187227;23;20400;-89
2022/03/14 12:37:47;;;;;;;3.13;1.97;;;26.80;32.10;;;;;;6187273;23;20740;-86
2022/03/14 12:40:35;;;;;;;3.23;1.50;;;26.20;32.90;;;;;;6189179;23;20401;-85
2022/03/14 12:43:17;;;;;;;3.00;1.30;;;26.30;33.60;;;;;;6187156;23;20405;-86
2022/03/14 12:45:46;;;;;;;2.83;1.63;;;27.30;32.70;;;;;;6196366;23;20780;-85
2022/03/14 12:48:19;;;;;;;2.83;1.77;;;27.10;31.70;;;;;;6194839;23;20443;-85
2022/03/14 12:50:59;;;;;;;1.47;1.20;;;26.60;32.10;;;;;;6195658;23;20417;-85
2022/03/14 12:53:51;;;;;;;2.37;1.77;;;25.10;34.00;;;;;;6198944;23;20397;-86
2022/03/14 12:56:25;;;;;;;3.07;1.40;;;26.30;33.40;;;;;;6192864;23;20414;-85
2022/03/14 12:58:58;;;;;;;2.40;1.10;;;25.60;33.10;;;;;;6199389;23;20431;-84
2022/03/14 13:01:26;;;;;;;4.10;1.90;;;25.30;34.00;;;;;;6202476;23;20429;-86
2022/03/14 13:03:54;;;;;;;4.10;1.43;;;24.60;34.50;;;;;;6212626;23;20393;-86
2022/03/14 13:06:31;;;;;;;5.50;1.90;;;23.70;35.10;;;;;;6202867;23;20847;-87
2022/03/14 13:08:58;;;;;;;3.03;2.13;;;23.00;36.40;;;;;;6192483;23;20741;-86
2022/03/14 13:11:33;;;;;;;2.57;1.57;;;23.60;36.30;;;;;;6189531;23;20495;-87
2022/03/14 13:14:04;;;;;;;4.73;2.07;;;24.10;36.10;;;;;;6190372;23;20390;-86
2022/03/14 13:16:31;;;;;;;3.23;1.60;;;24.10;35.70;;;;;;6190710;23;20394;-86
2022/03/14 13:18:59;;;;;;;3.40;1.30;;;23.70;35.90;;;;;;6191342;23;20426;-86
2022/03/14 13:21:27;;;;;;;3.00;1.27;;;25.00;35.60;;;;;;6198891;23;20429;-86
2022/03/14 13:23:57;;;;;;;4.37;1.77;;;27.10;33.10;;;;;;6212865;23;20387;-85
2022/03/14 13:26:25;;;;;;;5.00;1.50;;;28.00;32.10;;;;;;6213535;23;20370;-85
2022/03/14 13:28:53;;;;;;;2.30;1.60;;;28.10;31.70;;;;;;6212813;23;20497;-86
2022/03/14 13:31:32;;;;;;;4.60;1.40;;;28.30;31.80;;;;;;6212356;23;20433;-87
2022/03/14 13:33:59;;;;;;;2.20;1.27;;;27.90;32.70;;;;;;6209080;23;20394;-86
2022/03/14 13:36:26;;;;;;;3.27;1.60;;;26.80;33.20;;;;;;6193146;23;20416;-86
2022/03/14 13:38:55;;;;;;;4.70;2.60;;;26.40;34.20;;;;;;6211118;23;20414;-86
2022/03/14 13:41:23;;;;;;;2.90;1.30;;;25.50;34.50;;;;;;6208100;23;20402;-85
2022/03/14 13:43:52;;;;;;;4.57;1.80;;;24.00;36.20;;;;;;6214221;23;20419;-86
2022/03/14 13:46:29;;;;;;;4.70;1.67;;;22.80;38.00;;;;;;6210657;23;20413;-85
2022/03/14 13:49:02;;;;;;;3.23;1.37;;;22.30;39.10;;;;;;6193430;23;20456;-86
2022/03/14 13:51:31;;;;;;;2.03;1.47;;;22.30;39.80;;;;;;6191781;23;20429;-86
2022/03/14 13:54:08;;;;;;;4.27;1.43;;;22.80;39.20;;;;;;6188899;23;20916;-86
2022/03/14 13:56:37;;;;;;;3.10;1.70;;;23.20;38.60;;;;;;6205687;23;20400;-86
2022/03/14 13:59:05;;;;;;;2.40;1.40;;;22.80;38.90;;;;;;6197906;23;20430;-86
2022/03/14 14:01:47;;;;;;;3.60;1.30;;;22.60;39.40;;;;;;6196340;23;20404;-85
2022/03/14 14:04:16;;;;;;;2.20;1.53;;;22.50;39.50;;;;;;6188511;23;20386;-85
2022/03/14 14:06:50;;;;;;;3.37;1.10;;;22.50;39.60;;;;;;6188048;23;20400;-85
2022/03/14 14:09:23;;;;;;;2.37;1.30;;;22.20;39.50;;;;;;6188732;23;20844;-85
2022/03/14 14:12:08;;;;;;;3.33;1.87;;;21.70;40.10;;;;;;6184808;23;20435;-86
2022/03/14 14:14:38;;;;;;;2.97;1.30;;;21.40;40.60;;;;;;6186879;23;20460;-86
2022/03/14 14:17:16;;;;;;;3.63;1.30;;;21.30;41.00;;;;;;6187104;23;20395;-85